sensor_id;sensor_type;location;lat;lon;timestamp;P1;durP1;ratioP1;P2;durP2;ratioP2
12906;SDS011;6521;50.498;8.474;2022-10-16T00:00:20;3.08;;;1.27;;
12906;SDS011;6521;50.498;8.474;2022-10-16T00:02:50;2.47;;;1.10;;
12906;SDS011;6521;50.498;8.474;2022-10-16T00:05:21;1.65;;;1.15;;
12906;SDS011;6521;50.498;8.474;2022-10-16T00:07:52;4.07;;;1.90;;
12906;SDS011;6521;50.498;8.474;2022-10-16T00:10:23;1.45;;;1.27;;
12906;SDS011;6521;50.498;8.474;2022-10-16T00:12:54;2.35;;;1.30;;
12906;SDS011;6521;50.498;8.474;2022-10-16T00:15:25;1.88;;;1.27;;
12906;SDS011;6521;50.498;8.474;2022-10-16T00:17:55;1.98;;;1.30;;
12906;SDS011;6521;50.498;8.474;2022-10-16T00:20:26;5.82;;;1.65;;
12906;SDS011;6521;50.498;8.474;2022-10-16T00:22:57;3.08;;;1.33;;
12906;SDS011;6521;50.498;8.474;2022-10-16T00:25:28;2.00;;;1.55;;
12906;SDS011;6521;50.498;8.474;2022-10-16T00:27:59;3.55;;;1.30;;
12906;SDS011;6521;50.498;8.474;2022-10-16T00:30:31;1.42;;;1.15;;
12906;SDS011;6521;50.498;8.474;2022-10-16T00:33:01;5.05;;;1.48;;
12906;SDS011;6521;50.498;8.474;2022-10-16T00:35:33;2.05;;;1.35;;
12906;SDS011;6521;50.498;8.474;2022-10-16T00:38:03;5.78;;;1.30;;
12906;SDS011;6521;50.498;8.474;2022-10-16T00:40:34;7.47;;;1.17;;
12906;SDS011;6521;50.498;8.474;2022-10-16T00:43:12;1.48;;;1.10;;
12906;SDS011;6521;50.498;8.474;2022-10-16T00:45:44;1.20;;;1.10;;
12906;SDS011;6521;50.498;8.474;2022-10-16T00:48:15;1.25;;;1.10;;
12906;SDS011;6521;50.498;8.474;2022-10-16T00:50:46;2.60;;;1.20;;
12906;SDS011;6521;50.498;8.474;2022-10-16T00:53:17;1.60;;;1.10;;
12906;SDS011;6521;50.498;8.474;2022-10-16T00:55:47;1.92;;;1.30;;
12906;SDS011;6521;50.498;8.474;2022-10-16T00:58:18;2.78;;;1.20;;
12906;SDS011;6521;50.498;8.474;2022-10-16T01:00:50;2.20;;;1.63;;
12906;SDS011;6521;50.498;8.474;2022-10-16T01:03:25;4.00;;;1.20;;
12906;SDS011;6521;50.498;8.474;2022-10-16T01:14:10;4.72;;;1.40;;
12906;SDS011;6521;50.498;8.474;2022-10-16T01:16:48;2.33;;;1.10;;
12906;SDS011;6521;50.498;8.474;2022-10-16T01:19:36;3.30;;;1.30;;
12906;SDS011;6521;50.498;8.474;2022-10-16T01:22:17;4.35;;;1.50;;
12906;SDS011;6521;50.498;8.474;2022-10-16T01:24:50;2.25;;;1.30;;
12906;SDS011;6521;50.498;8.474;2022-10-16T01:27:26;1.50;;;1.30;;
12906;SDS011;6521;50.498;8.474;2022-10-16T01:32:38;1.10;;;1.10;;
12906;SDS011;6521;50.498;8.474;2022-10-16T01:35:22;1.80;;;1.27;;
12906;SDS011;6521;50.498;8.474;2022-10-16T01:37:59;1.35;;;1.25;;
12906;SDS011;6521;50.498;8.474;2022-10-16T01:40:34;4.47;;;1.48;;
12906;SDS011;6521;50.498;8.474;2022-10-16T01:43:14;1.27;;;1.17;;
12906;SDS011;6521;50.498;8.474;2022-10-16T01:45:47;3.17;;;1.25;;
12906;SDS011;6521;50.498;8.474;2022-10-16T01:48:19;2.08;;;1.20;;
12906;SDS011;6521;50.498;8.474;2022-10-16T01:50:54;1.55;;;1.40;;
12906;SDS011;6521;50.498;8.474;2022-10-16T01:53:31;1.58;;;1.35;;
12906;SDS011;6521;50.498;8.474;2022-10-16T01:56:03;3.60;;;1.20;;
12906;SDS011;6521;50.498;8.474;2022-10-16T01:58:39;2.22;;;1.65;;
12906;SDS011;6521;50.498;8.474;2022-10-16T02:01:15;1.75;;;1.50;;
12906;SDS011;6521;50.498;8.474;2022-10-16T02:03:49;2.55;;;1.33;;
12906;SDS011;6521;50.498;8.474;2022-10-16T02:06:23;2.65;;;1.38;;
12906;SDS011;6521;50.498;8.474;2022-10-16T02:08:55;2.63;;;1.50;;
12906;SDS011;6521;50.498;8.474;2022-10-16T02:11:26;6.82;;;1.80;;
12906;SDS011;6521;50.498;8.474;2022-10-16T02:14:06;3.78;;;1.67;;
12906;SDS011;6521;50.498;8.474;2022-10-16T02:16:42;1.40;;;1.30;;
12906;SDS011;6521;50.498;8.474;2022-10-16T02:19:16;4.53;;;1.40;;
12906;SDS011;6521;50.498;8.474;2022-10-16T02:27:27;1.40;;;1.30;;
12906;SDS011;6521;50.498;8.474;2022-10-16T02:33:03;4.70;;;1.50;;
12906;SDS011;6521;50.498;8.474;2022-10-16T02:35:37;2.92;;;1.45;;
12906;SDS011;6521;50.498;8.474;2022-10-16T02:38:08;1.10;;;1.00;;
12906;SDS011;6521;50.498;8.474;2022-10-16T02:40:40;1.40;;;1.30;;
12906;SDS011;6521;50.498;8.474;2022-10-16T02:43:12;5.45;;;1.70;;
12906;SDS011;6521;50.498;8.474;2022-10-16T02:45:43;2.13;;;1.40;;
12906;SDS011;6521;50.498;8.474;2022-10-16T02:48:14;2.13;;;1.20;;
12906;SDS011;6521;50.498;8.474;2022-10-16T02:50:45;2.75;;;1.25;;
12906;SDS011;6521;50.498;8.474;2022-10-16T02:53:16;1.40;;;1.30;;
12906;SDS011;6521;50.498;8.474;2022-10-16T02:55:47;4.30;;;1.45;;
12906;SDS011;6521;50.498;8.474;2022-10-16T02:58:18;2.00;;;1.80;;
12906;SDS011;6521;50.498;8.474;2022-10-16T03:00:48;10.50;;;6.00;;
12906;SDS011;6521;50.498;8.474;2022-10-16T03:03:19;9.02;;;4.20;;
12906;SDS011;6521;50.498;8.474;2022-10-16T03:05:50;4.30;;;2.22;;
12906;SDS011;6521;50.498;8.474;2022-10-16T03:08:21;5.68;;;1.60;;
12906;SDS011;6521;50.498;8.474;2022-10-16T03:10:53;3.65;;;1.27;;
12906;SDS011;6521;50.498;8.474;2022-10-16T03:13:24;2.63;;;1.63;;
12906;SDS011;6521;50.498;8.474;2022-10-16T03:15:55;5.18;;;1.20;;
12906;SDS011;6521;50.498;8.474;2022-10-16T03:18:26;1.30;;;1.20;;
12906;SDS011;6521;50.498;8.474;2022-10-16T03:20:56;3.15;;;1.33;;
12906;SDS011;6521;50.498;8.474;2022-10-16T03:23:27;1.17;;;1.08;;
12906;SDS011;6521;50.498;8.474;2022-10-16T03:25:58;3.05;;;1.88;;
12906;SDS011;6521;50.498;8.474;2022-10-16T03:28:29;5.68;;;1.35;;
12906;SDS011;6521;50.498;8.474;2022-10-16T03:31:00;3.08;;;1.10;;
12906;SDS011;6521;50.498;8.474;2022-10-16T03:33:30;0.80;;;0.80;;
12906;SDS011;6521;50.498;8.474;2022-10-16T03:36:01;1.00;;;1.00;;
12906;SDS011;6521;50.498;8.474;2022-10-16T03:38:32;4.25;;;1.23;;
12906;SDS011;6521;50.498;8.474;2022-10-16T03:41:03;6.68;;;1.33;;
12906;SDS011;6521;50.498;8.474;2022-10-16T03:43:34;5.57;;;1.20;;
12906;SDS011;6521;50.498;8.474;2022-10-16T03:46:05;4.57;;;1.00;;
12906;SDS011;6521;50.498;8.474;2022-10-16T03:48:36;2.45;;;0.88;;
12906;SDS011;6521;50.498;8.474;2022-10-16T03:51:07;1.67;;;0.98;;
12906;SDS011;6521;50.498;8.474;2022-10-16T03:53:38;0.82;;;0.82;;
12906;SDS011;6521;50.498;8.474;2022-10-16T03:56:09;2.72;;;0.88;;
12906;SDS011;6521;50.498;8.474;2022-10-16T03:58:39;1.67;;;0.90;;
12906;SDS011;6521;50.498;8.474;2022-10-16T04:01:10;2.60;;;0.90;;
12906;SDS011;6521;50.498;8.474;2022-10-16T04:03:41;4.10;;;0.80;;
12906;SDS011;6521;50.498;8.474;2022-10-16T04:06:12;1.77;;;0.80;;
12906;SDS011;6521;50.498;8.474;2022-10-16T04:08:43;4.75;;;0.93;;
12906;SDS011;6521;50.498;8.474;2022-10-16T04:11:14;1.85;;;0.85;;
12906;SDS011;6521;50.498;8.474;2022-10-16T04:13:44;0.90;;;0.90;;
12906;SDS011;6521;50.498;8.474;2022-10-16T04:16:15;1.65;;;0.90;;
12906;SDS011;6521;50.498;8.474;2022-10-16T04:18:46;3.53;;;0.80;;
12906;SDS011;6521;50.498;8.474;2022-10-16T04:21:16;1.27;;;0.85;;
12906;SDS011;6521;50.498;8.474;2022-10-16T04:23:47;2.22;;;0.82;;
12906;SDS011;6521;50.498;8.474;2022-10-16T04:26:19;1.77;;;1.00;;
12906;SDS011;6521;50.498;8.474;2022-10-16T04:28:50;2.00;;;1.08;;
12906;SDS011;6521;50.498;8.474;2022-10-16T04:31:21;4.15;;;0.90;;
12906;SDS011;6521;50.498;8.474;2022-10-16T04:33:52;1.60;;;1.00;;
12906;SDS011;6521;50.498;8.474;2022-10-16T04:36:23;1.10;;;0.80;;
12906;SDS011;6521;50.498;8.474;2022-10-16T04:38:53;1.42;;;0.90;;
12906;SDS011;6521;50.498;8.474;2022-10-16T04:41:24;1.38;;;0.77;;
12906;SDS011;6521;50.498;8.474;2022-10-16T04:43:55;3.28;;;0.90;;
12906;SDS011;6521;50.498;8.474;2022-10-16T04:46:26;2.38;;;0.80;;
12906;SDS011;6521;50.498;8.474;2022-10-16T04:48:56;2.63;;;0.75;;
12906;SDS011;6521;50.498;8.474;2022-10-16T04:51:27;4.22;;;1.00;;
12906;SDS011;6521;50.498;8.474;2022-10-16T04:53:58;5.28;;;1.20;;
12906;SDS011;6521;50.498;8.474;2022-10-16T04:56:29;9.27;;;1.20;;
12906;SDS011;6521;50.498;8.474;2022-10-16T04:59:00;3.13;;;0.90;;
12906;SDS011;6521;50.498;8.474;2022-10-16T05:01:30;0.85;;;0.80;;
12906;SDS011;6521;50.498;8.474;2022-10-16T05:04:01;1.70;;;0.90;;
12906;SDS011;6521;50.498;8.474;2022-10-16T05:06:32;3.13;;;0.90;;
12906;SDS011;6521;50.498;8.474;2022-10-16T05:09:06;0.80;;;0.80;;
12906;SDS011;6521;50.498;8.474;2022-10-16T05:11:36;2.28;;;0.90;;
12906;SDS011;6521;50.498;8.474;2022-10-16T05:14:07;5.55;;;1.42;;
12906;SDS011;6521;50.498;8.474;2022-10-16T05:16:38;4.15;;;1.20;;
12906;SDS011;6521;50.498;8.474;2022-10-16T05:19:09;13.07;;;1.50;;
12906;SDS011;6521;50.498;8.474;2022-10-16T05:21:39;7.78;;;1.00;;
12906;SDS011;6521;50.498;8.474;2022-10-16T05:24:10;3.80;;;1.30;;
12906;SDS011;6521;50.498;8.474;2022-10-16T05:26:41;1.27;;;0.88;;
12906;SDS011;6521;50.498;8.474;2022-10-16T05:29:12;3.90;;;1.35;;
12906;SDS011;6521;50.498;8.474;2022-10-16T05:31:43;4.50;;;1.40;;
12906;SDS011;6521;50.498;8.474;2022-10-16T05:34:13;9.07;;;1.23;;
12906;SDS011;6521;50.498;8.474;2022-10-16T05:36:44;1.58;;;1.10;;
12906;SDS011;6521;50.498;8.474;2022-10-16T05:39:15;4.03;;;0.90;;
12906;SDS011;6521;50.498;8.474;2022-10-16T05:41:46;1.50;;;0.95;;
12906;SDS011;6521;50.498;8.474;2022-10-16T05:44:20;5.20;;;1.10;;
12906;SDS011;6521;50.498;8.474;2022-10-16T05:46:51;7.53;;;1.35;;
12906;SDS011;6521;50.498;8.474;2022-10-16T05:49:21;2.05;;;0.85;;
12906;SDS011;6521;50.498;8.474;2022-10-16T05:51:52;7.63;;;1.08;;
12906;SDS011;6521;50.498;8.474;2022-10-16T05:54:23;9.00;;;1.55;;
12906;SDS011;6521;50.498;8.474;2022-10-16T05:56:53;6.28;;;1.10;;
12906;SDS011;6521;50.498;8.474;2022-10-16T05:59:24;6.45;;;1.50;;
12906;SDS011;6521;50.498;8.474;2022-10-16T06:01:55;1.83;;;1.30;;
12906;SDS011;6521;50.498;8.474;2022-10-16T06:04:26;4.88;;;1.27;;
12906;SDS011;6521;50.498;8.474;2022-10-16T06:06:59;2.42;;;1.10;;
12906;SDS011;6521;50.498;8.474;2022-10-16T06:09:33;3.00;;;1.30;;
12906;SDS011;6521;50.498;8.474;2022-10-16T06:12:03;6.20;;;1.30;;
12906;SDS011;6521;50.498;8.474;2022-10-16T06:14:34;5.63;;;1.23;;
12906;SDS011;6521;50.498;8.474;2022-10-16T06:17:05;3.05;;;1.10;;
12906;SDS011;6521;50.498;8.474;2022-10-16T06:19:36;1.92;;;1.08;;
12906;SDS011;6521;50.498;8.474;2022-10-16T06:22:06;2.85;;;1.10;;
12906;SDS011;6521;50.498;8.474;2022-10-16T06:24:37;1.52;;;1.00;;
12906;SDS011;6521;50.498;8.474;2022-10-16T06:27:08;1.20;;;1.10;;
12906;SDS011;6521;50.498;8.474;2022-10-16T06:29:39;4.15;;;1.30;;
12906;SDS011;6521;50.498;8.474;2022-10-16T06:32:09;3.50;;;1.10;;
12906;SDS011;6521;50.498;8.474;2022-10-16T06:34:40;1.90;;;1.05;;
12906;SDS011;6521;50.498;8.474;2022-10-16T06:37:11;1.30;;;1.20;;
12906;SDS011;6521;50.498;8.474;2022-10-16T06:39:42;2.55;;;1.10;;
12906;SDS011;6521;50.498;8.474;2022-10-16T06:42:12;5.22;;;1.35;;
12906;SDS011;6521;50.498;8.474;2022-10-16T06:44:45;2.08;;;1.20;;
12906;SDS011;6521;50.498;8.474;2022-10-16T06:47:15;3.08;;;1.40;;
12906;SDS011;6521;50.498;8.474;2022-10-16T06:49:46;1.58;;;1.48;;
12906;SDS011;6521;50.498;8.474;2022-10-16T06:52:17;1.60;;;1.50;;
12906;SDS011;6521;50.498;8.474;2022-10-16T06:54:49;1.00;;;1.00;;
12906;SDS011;6521;50.498;8.474;2022-10-16T06:57:19;1.52;;;1.40;;
12906;SDS011;6521;50.498;8.474;2022-10-16T06:59:50;5.43;;;1.70;;
12906;SDS011;6521;50.498;8.474;2022-10-16T07:02:21;1.70;;;1.45;;
12906;SDS011;6521;50.498;8.474;2022-10-16T07:04:52;1.50;;;1.35;;
12906;SDS011;6521;50.498;8.474;2022-10-16T07:07:22;1.75;;;1.30;;
12906;SDS011;6521;50.498;8.474;2022-10-16T07:09:59;1.80;;;1.48;;
12906;SDS011;6521;50.498;8.474;2022-10-16T07:12:30;4.97;;;1.60;;
12906;SDS011;6521;50.498;8.474;2022-10-16T07:15:01;2.55;;;1.40;;
12906;SDS011;6521;50.498;8.474;2022-10-16T07:17:32;4.25;;;1.67;;
12906;SDS011;6521;50.498;8.474;2022-10-16T07:20:02;3.30;;;1.52;;
12906;SDS011;6521;50.498;8.474;2022-10-16T07:22:33;2.80;;;1.50;;
12906;SDS011;6521;50.498;8.474;2022-10-16T07:25:04;4.30;;;3.47;;
12906;SDS011;6521;50.498;8.474;2022-10-16T07:27:35;4.15;;;2.58;;
12906;SDS011;6521;50.498;8.474;2022-10-16T07:30:06;3.13;;;2.00;;
12906;SDS011;6521;50.498;8.474;2022-10-16T07:32:37;2.55;;;1.95;;
12906;SDS011;6521;50.498;8.474;2022-10-16T07:35:11;7.78;;;2.35;;
12906;SDS011;6521;50.498;8.474;2022-10-16T07:37:45;4.22;;;3.83;;
12906;SDS011;6521;50.498;8.474;2022-10-16T07:40:16;3.05;;;2.45;;
12906;SDS011;6521;50.498;8.474;2022-10-16T07:42:47;2.47;;;2.13;;
12906;SDS011;6521;50.498;8.474;2022-10-16T07:45:18;3.17;;;2.03;;
12906;SDS011;6521;50.498;8.474;2022-10-16T07:47:48;4.20;;;2.78;;
12906;SDS011;6521;50.498;8.474;2022-10-16T07:50:19;5.38;;;2.55;;
12906;SDS011;6521;50.498;8.474;2022-10-16T07:52:50;3.03;;;2.72;;
12906;SDS011;6521;50.498;8.474;2022-10-16T07:55:21;2.42;;;2.22;;
12906;SDS011;6521;50.498;8.474;2022-10-16T07:57:52;5.97;;;2.97;;
12906;SDS011;6521;50.498;8.474;2022-10-16T08:00:22;4.20;;;2.50;;
12906;SDS011;6521;50.498;8.474;2022-10-16T08:02:53;4.85;;;3.03;;
12906;SDS011;6521;50.498;8.474;2022-10-16T08:05:24;2.45;;;2.25;;
12906;SDS011;6521;50.498;8.474;2022-10-16T08:07:55;4.13;;;2.75;;
12906;SDS011;6521;50.498;8.474;2022-10-16T08:10:26;5.10;;;2.85;;
12906;SDS011;6521;50.498;8.474;2022-10-16T08:12:58;5.38;;;2.80;;
12906;SDS011;6521;50.498;8.474;2022-10-16T08:15:29;4.40;;;2.65;;
12906;SDS011;6521;50.498;8.474;2022-10-16T08:18:01;13.63;;;2.92;;
12906;SDS011;6521;50.498;8.474;2022-10-16T08:20:33;6.18;;;3.10;;
12906;SDS011;6521;50.498;8.474;2022-10-16T08:23:04;3.40;;;3.10;;
12906;SDS011;6521;50.498;8.474;2022-10-16T08:25:35;6.82;;;3.10;;
12906;SDS011;6521;50.498;8.474;2022-10-16T08:28:07;3.30;;;3.00;;
12906;SDS011;6521;50.498;8.474;2022-10-16T08:30:39;4.13;;;3.17;;
12906;SDS011;6521;50.498;8.474;2022-10-16T08:33:11;3.10;;;2.60;;
12906;SDS011;6521;50.498;8.474;2022-10-16T08:35:42;4.78;;;2.20;;
12906;SDS011;6521;50.498;8.474;2022-10-16T08:38:12;4.75;;;2.28;;
12906;SDS011;6521;50.498;8.474;2022-10-16T08:40:43;2.63;;;2.40;;
12906;SDS011;6521;50.498;8.474;2022-10-16T08:43:23;3.38;;;2.53;;
12906;SDS011;6521;50.498;8.474;2022-10-16T08:49:05;2.35;;;1.98;;
12906;SDS011;6521;50.498;8.474;2022-10-16T08:51:42;3.13;;;2.00;;
12906;SDS011;6521;50.498;8.474;2022-10-16T08:54:26;9.40;;;2.33;;
12906;SDS011;6521;50.498;8.474;2022-10-16T08:57:09;12.40;;;9.73;;
12906;SDS011;6521;50.498;8.474;2022-10-16T08:59:42;3.92;;;3.40;;
12906;SDS011;6521;50.498;8.474;2022-10-16T09:04:55;4.45;;;2.28;;
12906;SDS011;6521;50.498;8.474;2022-10-16T09:07:43;8.82;;;1.90;;
12906;SDS011;6521;50.498;8.474;2022-10-16T09:12:56;5.05;;;1.80;;
12906;SDS011;6521;50.498;8.474;2022-10-16T09:21:07;2.00;;;1.80;;
12906;SDS011;6521;50.498;8.474;2022-10-16T09:23:44;3.20;;;2.00;;
12906;SDS011;6521;50.498;8.474;2022-10-16T09:26:16;2.22;;;2.03;;
12906;SDS011;6521;50.498;8.474;2022-10-16T09:28:49;4.22;;;1.85;;
12906;SDS011;6521;50.498;8.474;2022-10-16T09:31:22;3.35;;;1.85;;
12906;SDS011;6521;50.498;8.474;2022-10-16T09:33:55;3.25;;;1.75;;
12906;SDS011;6521;50.498;8.474;2022-10-16T09:36:29;3.47;;;1.80;;
12906;SDS011;6521;50.498;8.474;2022-10-16T09:39:07;6.20;;;1.70;;
12906;SDS011;6521;50.498;8.474;2022-10-16T09:41:41;2.75;;;1.90;;
12906;SDS011;6521;50.498;8.474;2022-10-16T09:44:24;2.63;;;1.85;;
12906;SDS011;6521;50.498;8.474;2022-10-16T09:47:01;2.97;;;2.00;;
12906;SDS011;6521;50.498;8.474;2022-10-16T09:49:35;4.15;;;1.80;;
12906;SDS011;6521;50.498;8.474;2022-10-16T09:52:13;2.72;;;1.98;;
12906;SDS011;6521;50.498;8.474;2022-10-16T09:54:52;7.38;;;1.60;;
12906;SDS011;6521;50.498;8.474;2022-10-16T09:57:24;13.30;;;1.55;;
12906;SDS011;6521;50.498;8.474;2022-10-16T09:59:57;6.13;;;1.77;;
12906;SDS011;6521;50.498;8.474;2022-10-16T10:02:29;2.45;;;1.58;;
12906;SDS011;6521;50.498;8.474;2022-10-16T10:05:04;1.95;;;1.20;;
12906;SDS011;6521;50.498;8.474;2022-10-16T10:07:44;1.58;;;1.40;;
12906;SDS011;6521;50.498;8.474;2022-10-16T10:10:22;2.75;;;1.38;;
12906;SDS011;6521;50.498;8.474;2022-10-16T10:12:57;4.15;;;1.40;;
12906;SDS011;6521;50.498;8.474;2022-10-16T10:15:29;3.85;;;1.38;;
12906;SDS011;6521;50.498;8.474;2022-10-16T10:18:15;1.55;;;1.45;;
12906;SDS011;6521;50.498;8.474;2022-10-16T10:20:58;2.72;;;1.52;;
12906;SDS011;6521;50.498;8.474;2022-10-16T10:23:33;2.15;;;1.40;;
12906;SDS011;6521;50.498;8.474;2022-10-16T10:26:09;5.35;;;1.60;;
12906;SDS011;6521;50.498;8.474;2022-10-16T10:31:38;1.67;;;1.50;;
12906;SDS011;6521;50.498;8.474;2022-10-16T10:51:53;1.58;;;0.80;;
12906;SDS011;6521;50.498;8.474;2022-10-16T11:06:12;1.50;;;0.93;;
12906;SDS011;6521;50.498;8.474;2022-10-16T11:08:52;4.60;;;0.75;;
12906;SDS011;6521;50.498;8.474;2022-10-16T11:11:30;1.00;;;0.90;;
12906;SDS011;6521;50.498;8.474;2022-10-16T11:14:11;1.98;;;0.90;;
12906;SDS011;6521;50.498;8.474;2022-10-16T11:16:58;3.85;;;0.70;;
12906;SDS011;6521;50.498;8.474;2022-10-16T11:19:40;1.77;;;0.80;;
12906;SDS011;6521;50.498;8.474;2022-10-16T11:25:32;0.85;;;0.80;;
12906;SDS011;6521;50.498;8.474;2022-10-16T11:28:08;0.85;;;0.85;;
12906;SDS011;6521;50.498;8.474;2022-10-16T11:30:44;1.85;;;0.98;;
12906;SDS011;6521;50.498;8.474;2022-10-16T11:33:28;9.10;;;1.20;;
12906;SDS011;6521;50.498;8.474;2022-10-16T11:56:01;3.17;;;0.80;;
12906;SDS011;6521;50.498;8.474;2022-10-16T12:06:49;0.80;;;0.80;;
12906;SDS011;6521;50.498;8.474;2022-10-16T12:09:25;1.83;;;0.82;;
12906;SDS011;6521;50.498;8.474;2022-10-16T12:12:01;1.20;;;0.65;;
12906;SDS011;6521;50.498;8.474;2022-10-16T12:17:03;2.63;;;0.75;;
12906;SDS011;6521;50.498;8.474;2022-10-16T12:25:27;0.70;;;0.70;;
12906;SDS011;6521;50.498;8.474;2022-10-16T12:28:00;1.50;;;0.68;;
12906;SDS011;6521;50.498;8.474;2022-10-16T12:30:53;1.92;;;0.68;;
12906;SDS011;6521;50.498;8.474;2022-10-16T12:33:27;1.05;;;0.98;;
12906;SDS011;6521;50.498;8.474;2022-10-16T12:36:01;2.08;;;0.60;;
12906;SDS011;6521;50.498;8.474;2022-10-16T12:41:29;0.98;;;0.80;;
12906;SDS011;6521;50.498;8.474;2022-10-16T12:44:01;1.05;;;0.90;;
12906;SDS011;6521;50.498;8.474;2022-10-16T12:49:15;0.60;;;0.60;;
12906;SDS011;6521;50.498;8.474;2022-10-16T12:51:52;2.55;;;0.65;;
12906;SDS011;6521;50.498;8.474;2022-10-16T12:57:05;0.80;;;0.80;;
12906;SDS011;6521;50.498;8.474;2022-10-16T13:11:31;1.23;;;0.70;;
12906;SDS011;6521;50.498;8.474;2022-10-16T13:20:25;0.95;;;0.85;;
12906;SDS011;6521;50.498;8.474;2022-10-16T13:26:19;6.05;;;1.50;;
12906;SDS011;6521;50.498;8.474;2022-10-16T13:28:52;4.68;;;1.30;;
12906;SDS011;6521;50.498;8.474;2022-10-16T13:31:23;1.98;;;1.58;;
12906;SDS011;6521;50.498;8.474;2022-10-16T13:33:56;2.55;;;1.27;;
12906;SDS011;6521;50.498;8.474;2022-10-16T13:36:30;2.88;;;1.00;;
12906;SDS011;6521;50.498;8.474;2022-10-16T13:39:15;1.00;;;1.00;;
12906;SDS011;6521;50.498;8.474;2022-10-16T13:42:03;3.58;;;1.00;;
12906;SDS011;6521;50.498;8.474;2022-10-16T13:44:39;4.15;;;1.00;;
12906;SDS011;6521;50.498;8.474;2022-10-16T13:47:16;2.60;;;1.00;;
12906;SDS011;6521;50.498;8.474;2022-10-16T13:50:04;15.27;;;1.08;;
12906;SDS011;6521;50.498;8.474;2022-10-16T13:52:39;2.17;;;0.70;;
12906;SDS011;6521;50.498;8.474;2022-10-16T13:57:43;2.15;;;0.65;;
12906;SDS011;6521;50.498;8.474;2022-10-16T14:00:22;0.80;;;0.73;;
12906;SDS011;6521;50.498;8.474;2022-10-16T14:03:05;0.82;;;0.80;;
12906;SDS011;6521;50.498;8.474;2022-10-16T14:05:49;1.20;;;0.80;;
12906;SDS011;6521;50.498;8.474;2022-10-16T14:08:23;3.92;;;0.90;;
12906;SDS011;6521;50.498;8.474;2022-10-16T14:10:57;2.13;;;0.68;;
12906;SDS011;6521;50.498;8.474;2022-10-16T14:13:39;0.80;;;0.65;;
12906;SDS011;6521;50.498;8.474;2022-10-16T14:16:17;3.85;;;0.63;;
12906;SDS011;6521;50.498;8.474;2022-10-16T14:19:01;3.35;;;0.80;;
12906;SDS011;6521;50.498;8.474;2022-10-16T14:21:34;2.13;;;0.73;;
12906;SDS011;6521;50.498;8.474;2022-10-16T14:27:01;4.03;;;0.98;;
12906;SDS011;6521;50.498;8.474;2022-10-16T14:29:32;1.00;;;0.80;;
12906;SDS011;6521;50.498;8.474;2022-10-16T14:32:05;0.88;;;0.77;;
12906;SDS011;6521;50.498;8.474;2022-10-16T14:34:37;1.45;;;0.77;;
12906;SDS011;6521;50.498;8.474;2022-10-16T14:37:29;2.00;;;1.13;;
12906;SDS011;6521;50.498;8.474;2022-10-16T14:40:01;1.63;;;1.40;;
12906;SDS011;6521;50.498;8.474;2022-10-16T14:42:32;1.83;;;1.23;;
12906;SDS011;6521;50.498;8.474;2022-10-16T14:45:07;0.70;;;0.70;;
12906;SDS011;6521;50.498;8.474;2022-10-16T14:47:51;3.33;;;0.93;;
12906;SDS011;6521;50.498;8.474;2022-10-16T14:50:24;3.22;;;1.10;;
12906;SDS011;6521;50.498;8.474;2022-10-16T14:52:55;3.83;;;1.30;;
12906;SDS011;6521;50.498;8.474;2022-10-16T14:55:26;6.35;;;1.70;;
12906;SDS011;6521;50.498;8.474;2022-10-16T14:57:57;2.58;;;1.30;;
12906;SDS011;6521;50.498;8.474;2022-10-16T15:00:28;4.53;;;1.55;;
12906;SDS011;6521;50.498;8.474;2022-10-16T15:02:58;2.08;;;1.13;;
12906;SDS011;6521;50.498;8.474;2022-10-16T15:05:29;2.90;;;1.10;;
12906;SDS011;6521;50.498;8.474;2022-10-16T15:08:02;3.28;;;1.35;;
12906;SDS011;6521;50.498;8.474;2022-10-16T15:10:38;3.60;;;1.60;;
12906;SDS011;6521;50.498;8.474;2022-10-16T15:13:13;2.15;;;1.40;;
12906;SDS011;6521;50.498;8.474;2022-10-16T15:15:45;2.40;;;1.40;;
12906;SDS011;6521;50.498;8.474;2022-10-16T15:18:16;2.17;;;1.60;;
12906;SDS011;6521;50.498;8.474;2022-10-16T15:20:50;1.67;;;1.40;;
12906;SDS011;6521;50.498;8.474;2022-10-16T15:23:22;3.42;;;1.73;;
12906;SDS011;6521;50.498;8.474;2022-10-16T15:25:54;4.07;;;1.67;;
12906;SDS011;6521;50.498;8.474;2022-10-16T15:28:26;1.60;;;1.50;;
12906;SDS011;6521;50.498;8.474;2022-10-16T15:30:57;3.38;;;1.50;;
12906;SDS011;6521;50.498;8.474;2022-10-16T15:33:28;1.60;;;1.50;;
12906;SDS011;6521;50.498;8.474;2022-10-16T15:36:03;2.00;;;1.80;;
12906;SDS011;6521;50.498;8.474;2022-10-16T15:38:34;5.13;;;1.77;;
12906;SDS011;6521;50.498;8.474;2022-10-16T15:41:05;1.73;;;1.63;;
12906;SDS011;6521;50.498;8.474;2022-10-16T15:43:35;3.03;;;1.77;;
12906;SDS011;6521;50.498;8.474;2022-10-16T15:46:08;1.95;;;1.80;;
12906;SDS011;6521;50.498;8.474;2022-10-16T15:48:41;10.45;;;2.50;;
12906;SDS011;6521;50.498;8.474;2022-10-16T15:51:13;2.75;;;1.90;;
12906;SDS011;6521;50.498;8.474;2022-10-16T15:53:44;2.80;;;1.90;;
12906;SDS011;6521;50.498;8.474;2022-10-16T15:56:16;2.63;;;2.42;;
12906;SDS011;6521;50.498;8.474;2022-10-16T15:58:47;3.55;;;2.88;;
12906;SDS011;6521;50.498;8.474;2022-10-16T16:01:18;6.95;;;3.63;;
12906;SDS011;6521;50.498;8.474;2022-10-16T16:03:52;4.47;;;3.65;;
12906;SDS011;6521;50.498;8.474;2022-10-16T16:06:23;2.78;;;2.50;;
12906;SDS011;6521;50.498;8.474;2022-10-16T16:08:54;2.63;;;1.95;;
12906;SDS011;6521;50.498;8.474;2022-10-16T16:11:25;2.63;;;2.30;;
12906;SDS011;6521;50.498;8.474;2022-10-16T16:13:56;2.42;;;2.15;;
12906;SDS011;6521;50.498;8.474;2022-10-16T16:16:27;4.63;;;2.00;;
12906;SDS011;6521;50.498;8.474;2022-10-16T16:18:57;1.60;;;1.50;;
12906;SDS011;6521;50.498;8.474;2022-10-16T16:21:28;5.32;;;1.80;;
12906;SDS011;6521;50.498;8.474;2022-10-16T16:23:59;2.03;;;1.90;;
12906;SDS011;6521;50.498;8.474;2022-10-16T16:26:30;2.85;;;1.90;;
12906;SDS011;6521;50.498;8.474;2022-10-16T16:29:06;4.32;;;1.90;;
12906;SDS011;6521;50.498;8.474;2022-10-16T16:31:37;7.28;;;2.55;;
12906;SDS011;6521;50.498;8.474;2022-10-16T16:34:08;10.00;;;2.50;;
12906;SDS011;6521;50.498;8.474;2022-10-16T16:36:39;10.15;;;2.45;;
12906;SDS011;6521;50.498;8.474;2022-10-16T16:39:10;5.70;;;2.03;;
12906;SDS011;6521;50.498;8.474;2022-10-16T16:41:41;15.35;;;2.35;;
12906;SDS011;6521;50.498;8.474;2022-10-16T16:44:12;12.43;;;2.30;;
12906;SDS011;6521;50.498;8.474;2022-10-16T16:46:44;10.82;;;2.53;;
12906;SDS011;6521;50.498;8.474;2022-10-16T16:49:15;7.20;;;2.17;;
12906;SDS011;6521;50.498;8.474;2022-10-16T16:51:46;3.63;;;1.95;;
12906;SDS011;6521;50.498;8.474;2022-10-16T16:54:16;8.55;;;2.33;;
12906;SDS011;6521;50.498;8.474;2022-10-16T16:56:47;7.25;;;2.25;;
12906;SDS011;6521;50.498;8.474;2022-10-16T16:59:19;11.85;;;2.50;;
12906;SDS011;6521;50.498;8.474;2022-10-16T17:01:52;7.18;;;2.25;;
12906;SDS011;6521;50.498;8.474;2022-10-16T17:04:23;2.88;;;2.30;;
12906;SDS011;6521;50.498;8.474;2022-10-16T17:06:54;5.22;;;2.22;;
12906;SDS011;6521;50.498;8.474;2022-10-16T17:09:25;5.68;;;2.13;;
12906;SDS011;6521;50.498;8.474;2022-10-16T17:11:56;5.38;;;2.55;;
12906;SDS011;6521;50.498;8.474;2022-10-16T17:14:27;3.72;;;2.85;;
12906;SDS011;6521;50.498;8.474;2022-10-16T17:16:57;4.32;;;2.60;;
12906;SDS011;6521;50.498;8.474;2022-10-16T17:19:28;7.40;;;2.80;;
12906;SDS011;6521;50.498;8.474;2022-10-16T17:21:59;3.08;;;2.70;;
12906;SDS011;6521;50.498;8.474;2022-10-16T17:24:30;11.10;;;2.72;;
12906;SDS011;6521;50.498;8.474;2022-10-16T17:27:01;4.10;;;2.55;;
12906;SDS011;6521;50.498;8.474;2022-10-16T17:29:31;4.60;;;2.42;;
12906;SDS011;6521;50.498;8.474;2022-10-16T17:32:02;3.60;;;2.60;;
12906;SDS011;6521;50.498;8.474;2022-10-16T17:34:33;5.97;;;3.03;;
12906;SDS011;6521;50.498;8.474;2022-10-16T17:37:05;2.92;;;2.63;;
12906;SDS011;6521;50.498;8.474;2022-10-16T17:39:35;10.13;;;5.30;;
12906;SDS011;6521;50.498;8.474;2022-10-16T17:42:06;7.00;;;4.28;;
12906;SDS011;6521;50.498;8.474;2022-10-16T17:44:37;4.63;;;3.72;;
12906;SDS011;6521;50.498;8.474;2022-10-16T17:47:07;3.33;;;3.05;;
12906;SDS011;6521;50.498;8.474;2022-10-16T17:49:38;7.57;;;3.50;;
12906;SDS011;6521;50.498;8.474;2022-10-16T17:52:10;6.57;;;2.63;;
12906;SDS011;6521;50.498;8.474;2022-10-16T17:54:40;2.90;;;2.63;;